sensor_id;sensor_type;location;lat;lon;timestamp;temperature;humidity
25248;DHT22;13191;47.472;11.214;2022-12-18T00:01:38;-6.90;99.90
25248;DHT22;13191;47.472;11.214;2022-12-18T00:04:05;-7.00;99.90
25248;DHT22;13191;47.472;11.214;2022-12-18T00:06:31;-7.20;99.90
25248;DHT22;13191;47.472;11.214;2022-12-18T00:08:58;-7.30;99.90
25248;DHT22;13191;47.472;11.214;2022-12-18T00:11:27;-7.30;99.90
25248;DHT22;13191;47.472;11.214;2022-12-18T00:13:54;-7.30;99.90
25248;DHT22;13191;47.472;11.214;2022-12-18T00:16:22;-7.20;99.90
25248;DHT22;13191;47.472;11.214;2022-12-18T00:18:49;-7.20;99.90
25248;DHT22;13191;47.472;11.214;2022-12-18T00:21:15;-7.20;99.90
25248;DHT22;13191;47.472;11.214;2022-12-18T00:23:42;-7.20;99.90
25248;DHT22;13191;47.472;11.214;2022-12-18T00:26:12;-7.20;99.90
25248;DHT22;13191;47.472;11.214;2022-12-18T00:28:38;-7.30;99.90
25248;DHT22;13191;47.472;11.214;2022-12-18T00:31:06;-7.30;99.90
25248;DHT22;13191;47.472;11.214;2022-12-18T00:33:32;-7.20;99.90
25248;DHT22;13191;47.472;11.214;2022-12-18T00:36:21;-7.30;99.90
25248;DHT22;13191;47.472;11.214;2022-12-18T00:38:47;-7.30;99.90
25248;DHT22;13191;47.472;11.214;2022-12-18T00:41:15;-7.40;99.90
25248;DHT22;13191;47.472;11.214;2022-12-18T00:44:05;-7.30;99.90
25248;DHT22;13191;47.472;11.214;2022-12-18T00:46:31;-7.30;99.90
25248;DHT22;13191;47.472;11.214;2022-12-18T00:48:57;-7.40;99.90
25248;DHT22;13191;47.472;11.214;2022-12-18T00:51:23;-7.40;99.90
25248;DHT22;13191;47.472;11.214;2022-12-18T00:53:49;-7.40;99.90
25248;DHT22;13191;47.472;11.214;2022-12-18T00:56:14;-7.40;99.90
25248;DHT22;13191;47.472;11.214;2022-12-18T00:58:40;-7.40;99.90
25248;DHT22;13191;47.472;11.214;2022-12-18T01:01:06;-7.40;99.90
25248;DHT22;13191;47.472;11.214;2022-12-18T01:03:32;-7.60;99.90
25248;DHT22;13191;47.472;11.214;2022-12-18T01:05:58;-7.60;99.90
25248;DHT22;13191;47.472;11.214;2022-12-18T01:08:24;-7.60;99.90
25248;DHT22;13191;47.472;11.214;2022-12-18T01:10:49;-7.70;99.90
25248;DHT22;13191;47.472;11.214;2022-12-18T01:13:15;-7.70;99.90
25248;DHT22;13191;47.472;11.214;2022-12-18T01:15:47;-7.70;99.90
25248;DHT22;13191;47.472;11.214;2022-12-18T01:18:12;-7.70;99.90
25248;DHT22;13191;47.472;11.214;2022-12-18T01:20:38;-7.80;99.90
25248;DHT22;13191;47.472;11.214;2022-12-18T01:23:04;-7.80;99.90
25248;DHT22;13191;47.472;11.214;2022-12-18T01:25:29;-7.90;99.90
25248;DHT22;13191;47.472;11.214;2022-12-18T01:27:55;-8.00;99.90
25248;DHT22;13191;47.472;11.214;2022-12-18T01:30:20;-7.90;99.90
25248;DHT22;13191;47.472;11.214;2022-12-18T01:32:46;-7.90;99.90
25248;DHT22;13191;47.472;11.214;2022-12-18T01:35:11;-7.90;99.90
25248;DHT22;13191;47.472;11.214;2022-12-18T01:37:37;-7.80;99.90
25248;DHT22;13191;47.472;11.214;2022-12-18T01:40:03;-7.80;99.90
25248;DHT22;13191;47.472;11.214;2022-12-18T01:42:28;-7.90;99.90
25248;DHT22;13191;47.472;11.214;2022-12-18T01:50:22;-7.80;99.90
25248;DHT22;13191;47.472;11.214;2022-12-18T01:53:00;-7.90;99.90
25248;DHT22;13191;47.472;11.214;2022-12-18T01:55:30;-7.90;99.90
25248;DHT22;13191;47.472;11.214;2022-12-18T01:57:58;-7.90;99.90
25248;DHT22;13191;47.472;11.214;2022-12-18T02:00:25;-7.90;99.90
25248;DHT22;13191;47.472;11.214;2022-12-18T02:02:53;-7.90;99.90
25248;DHT22;13191;47.472;11.214;2022-12-18T02:13:41;-8.00;99.90
25248;DHT22;13191;47.472;11.214;2022-12-18T02:16:12;-8.00;99.90
25248;DHT22;13191;47.472;11.214;2022-12-18T02:18:47;-8.10;99.90
25248;DHT22;13191;47.472;11.214;2022-12-18T02:24:37;-8.10;99.90
25248;DHT22;13191;47.472;11.214;2022-12-18T02:27:07;-8.00;99.90
25248;DHT22;13191;47.472;11.214;2022-12-18T02:29:46;-8.10;99.90
25248;DHT22;13191;47.472;11.214;2022-12-18T02:32:18;-8.10;99.90
25248;DHT22;13191;47.472;11.214;2022-12-18T02:34:45;-8.20;99.90
25248;DHT22;13191;47.472;11.214;2022-12-18T02:37:14;-8.20;99.90
25248;DHT22;13191;47.472;11.214;2022-12-18T02:39:43;-8.30;99.90
25248;DHT22;13191;47.472;11.214;2022-12-18T02:42:10;-8.30;99.90
25248;DHT22;13191;47.472;11.214;2022-12-18T02:44:44;-8.30;99.90
25248;DHT22;13191;47.472;11.214;2022-12-18T02:47:12;-8.40;99.90
25248;DHT22;13191;47.472;11.214;2022-12-18T02:49:49;-8.30;99.90
25248;DHT22;13191;47.472;11.214;2022-12-18T02:52:35;-8.30;99.90
25248;DHT22;13191;47.472;11.214;2022-12-18T02:57:58;-8.50;99.90
25248;DHT22;13191;47.472;11.214;2022-12-18T03:03:16;-8.40;99.90
25248;DHT22;13191;47.472;11.214;2022-12-18T03:06:12;-8.40;99.90
25248;DHT22;13191;47.472;11.214;2022-12-18T03:08:43;-8.40;99.90
25248;DHT22;13191;47.472;11.214;2022-12-18T03:11:11;-8.50;99.90
25248;DHT22;13191;47.472;11.214;2022-12-18T03:13:48;-8.60;99.90
25248;DHT22;13191;47.472;11.214;2022-12-18T03:16:20;-8.60;99.90
25248;DHT22;13191;47.472;11.214;2022-12-18T03:21:54;-8.70;99.90
25248;DHT22;13191;47.472;11.214;2022-12-18T03:24:21;-8.60;99.90
25248;DHT22;13191;47.472;11.214;2022-12-18T03:26:52;-8.70;99.90
25248;DHT22;13191;47.472;11.214;2022-12-18T03:29:25;-8.70;99.90
25248;DHT22;13191;47.472;11.214;2022-12-18T03:31:55;-8.70;99.90
25248;DHT22;13191;47.472;11.214;2022-12-18T03:34:32;-8.70;99.90
25248;DHT22;13191;47.472;11.214;2022-12-18T03:36:59;-8.80;99.90
25248;DHT22;13191;47.472;11.214;2022-12-18T03:39:24;-8.80;99.90
25248;DHT22;13191;47.472;11.214;2022-12-18T03:42:07;-8.90;99.90
25248;DHT22;13191;47.472;11.214;2022-12-18T03:44:39;-8.80;99.90
25248;DHT22;13191;47.472;11.214;2022-12-18T03:52:12;-8.80;99.90
25248;DHT22;13191;47.472;11.214;2022-12-18T03:54:39;-8.90;99.90
25248;DHT22;13191;47.472;11.214;2022-12-18T03:57:11;-9.00;99.90
25248;DHT22;13191;47.472;11.214;2022-12-18T03:59:39;-8.90;99.90
25248;DHT22;13191;47.472;11.214;2022-12-18T04:02:06;-9.00;99.90
25248;DHT22;13191;47.472;11.214;2022-12-18T04:04:34;-8.90;99.90
25248;DHT22;13191;47.472;11.214;2022-12-18T04:07:01;-8.90;99.90
25248;DHT22;13191;47.472;11.214;2022-12-18T04:09:27;-8.80;99.90
25248;DHT22;13191;47.472;11.214;2022-12-18T04:11:53;-8.80;99.90
25248;DHT22;13191;47.472;11.214;2022-12-18T04:14:20;-8.80;99.90
25248;DHT22;13191;47.472;11.214;2022-12-18T04:16:45;-8.90;99.90
25248;DHT22;13191;47.472;11.214;2022-12-18T04:19:11;-8.80;99.90
25248;DHT22;13191;47.472;11.214;2022-12-18T04:21:36;-8.90;99.90
25248;DHT22;13191;47.472;11.214;2022-12-18T04:24:02;-8.80;99.90
25248;DHT22;13191;47.472;11.214;2022-12-18T04:26:28;-8.90;99.90
25248;DHT22;13191;47.472;11.214;2022-12-18T04:28:53;-8.80;99.90
25248;DHT22;13191;47.472;11.214;2022-12-18T04:31:19;-8.80;99.90
25248;DHT22;13191;47.472;11.214;2022-12-18T04:33:45;-9.00;99.90
25248;DHT22;13191;47.472;11.214;2022-12-18T04:36:10;-9.00;99.90
25248;DHT22;13191;47.472;11.214;2022-12-18T04:38:38;-9.00;99.90
25248;DHT22;13191;47.472;11.214;2022-12-18T04:41:03;-9.10;99.90
25248;DHT22;13191;47.472;11.214;2022-12-18T04:43:29;-9.20;99.90
25248;DHT22;13191;47.472;11.214;2022-12-18T04:46:04;-9.10;99.90
25248;DHT22;13191;47.472;11.214;2022-12-18T04:48:30;-9.10;99.90
25248;DHT22;13191;47.472;11.214;2022-12-18T04:50:56;-9.00;99.90
25248;DHT22;13191;47.472;11.214;2022-12-18T04:53:22;-9.00;99.90
25248;DHT22;13191;47.472;11.214;2022-12-18T04:55:47;-9.10;99.90
25248;DHT22;13191;47.472;11.214;2022-12-18T04:58:13;-9.10;99.90
25248;DHT22;13191;47.472;11.214;2022-12-18T05:00:38;-9.00;99.90
25248;DHT22;13191;47.472;11.214;2022-12-18T05:03:04;-9.00;99.90
25248;DHT22;13191;47.472;11.214;2022-12-18T05:05:30;-8.90;99.90
25248;DHT22;13191;47.472;11.214;2022-12-18T05:07:56;-8.90;99.90
25248;DHT22;13191;47.472;11.214;2022-12-18T05:10:22;-8.80;99.90
25248;DHT22;13191;47.472;11.214;2022-12-18T05:12:47;-8.80;99.90
25248;DHT22;13191;47.472;11.214;2022-12-18T05:15:32;-8.90;99.90
25248;DHT22;13191;47.472;11.214;2022-12-18T05:17:58;-8.80;99.90
25248;DHT22;13191;47.472;11.214;2022-12-18T05:20:25;-8.80;99.90
25248;DHT22;13191;47.472;11.214;2022-12-18T05:22:51;-8.80;99.90
25248;DHT22;13191;47.472;11.214;2022-12-18T05:25:17;-8.80;99.90
25248;DHT22;13191;47.472;11.214;2022-12-18T05:27:42;-8.90;99.90
25248;DHT22;13191;47.472;11.214;2022-12-18T05:30:09;-8.90;99.90
25248;DHT22;13191;47.472;11.214;2022-12-18T05:32:35;-8.90;99.90
25248;DHT22;13191;47.472;11.214;2022-12-18T05:35:00;-8.90;99.90
25248;DHT22;13191;47.472;11.214;2022-12-18T05:37:26;-8.80;99.90
25248;DHT22;13191;47.472;11.214;2022-12-18T05:39:52;-8.80;99.90
25248;DHT22;13191;47.472;11.214;2022-12-18T05:42:17;-8.70;99.90
25248;DHT22;13191;47.472;11.214;2022-12-18T05:44:43;-8.70;99.90
25248;DHT22;13191;47.472;11.214;2022-12-18T05:47:09;-8.80;99.90
25248;DHT22;13191;47.472;11.214;2022-12-18T05:49:35;-8.80;99.90
25248;DHT22;13191;47.472;11.214;2022-12-18T05:52:00;-8.90;99.90
25248;DHT22;13191;47.472;11.214;2022-12-18T05:54:29;-9.00;99.90
25248;DHT22;13191;47.472;11.214;2022-12-18T05:56:56;-9.00;99.90
25248;DHT22;13191;47.472;11.214;2022-12-18T05:59:22;-8.90;99.90
25248;DHT22;13191;47.472;11.214;2022-12-18T06:01:48;-8.90;99.90
25248;DHT22;13191;47.472;11.214;2022-12-18T06:04:14;-8.90;99.90
25248;DHT22;13191;47.472;11.214;2022-12-18T06:06:40;-9.00;99.90
25248;DHT22;13191;47.472;11.214;2022-12-18T06:09:06;-8.90;99.90
25248;DHT22;13191;47.472;11.214;2022-12-18T06:11:36;-9.00;99.90
25248;DHT22;13191;47.472;11.214;2022-12-18T06:14:02;-9.00;99.90
25248;DHT22;13191;47.472;11.214;2022-12-18T06:16:29;-9.00;99.90
25248;DHT22;13191;47.472;11.214;2022-12-18T06:18:59;-8.90;99.90
25248;DHT22;13191;47.472;11.214;2022-12-18T06:21:26;-8.90;99.90
25248;DHT22;13191;47.472;11.214;2022-12-18T06:23:51;-8.80;99.90
25248;DHT22;13191;47.472;11.214;2022-12-18T06:26:17;-8.70;99.90
25248;DHT22;13191;47.472;11.214;2022-12-18T06:28:42;-8.70;99.90
25248;DHT22;13191;47.472;11.214;2022-12-18T06:31:09;-8.70;99.90
25248;DHT22;13191;47.472;11.214;2022-12-18T06:33:35;-8.80;99.90
25248;DHT22;13191;47.472;11.214;2022-12-18T06:36:03;-8.70;99.90
25248;DHT22;13191;47.472;11.214;2022-12-18T06:38:29;-8.80;99.90
25248;DHT22;13191;47.472;11.214;2022-12-18T06:40:54;-8.70;99.90
25248;DHT22;13191;47.472;11.214;2022-12-18T06:43:20;-8.70;99.90
25248;DHT22;13191;47.472;11.214;2022-12-18T06:45:45;-8.70;99.90
25248;DHT22;13191;47.472;11.214;2022-12-18T06:48:14;-8.70;99.90
25248;DHT22;13191;47.472;11.214;2022-12-18T06:50:42;-8.70;99.90
25248;DHT22;13191;47.472;11.214;2022-12-18T06:53:08;-8.70;99.90
25248;DHT22;13191;47.472;11.214;2022-12-18T06:55:33;-8.60;99.90
25248;DHT22;13191;47.472;11.214;2022-12-18T06:57:59;-8.60;99.90
25248;DHT22;13191;47.472;11.214;2022-12-18T07:00:24;-8.60;99.90
25248;DHT22;13191;47.472;11.214;2022-12-18T07:02:50;-8.60;99.90
25248;DHT22;13191;47.472;11.214;2022-12-18T07:05:15;-8.60;99.90
25248;DHT22;13191;47.472;11.214;2022-12-18T07:07:41;-8.60;99.90
25248;DHT22;13191;47.472;11.214;2022-12-18T07:10:07;-8.60;99.90
25248;DHT22;13191;47.472;11.214;2022-12-18T07:12:33;-8.60;99.90
25248;DHT22;13191;47.472;11.214;2022-12-18T07:14:58;-8.50;99.90
25248;DHT22;13191;47.472;11.214;2022-12-18T07:17:24;-8.50;99.90
25248;DHT22;13191;47.472;11.214;2022-12-18T07:19:49;-8.50;99.90
25248;DHT22;13191;47.472;11.214;2022-12-18T07:22:15;-8.50;99.90
25248;DHT22;13191;47.472;11.214;2022-12-18T07:24:40;-8.50;99.90
25248;DHT22;13191;47.472;11.214;2022-12-18T07:27:06;-8.50;99.90
25248;DHT22;13191;47.472;11.214;2022-12-18T07:29:32;-8.50;99.90
25248;DHT22;13191;47.472;11.214;2022-12-18T07:31:57;-8.50;99.90
25248;DHT22;13191;47.472;11.214;2022-12-18T07:34:23;-8.50;99.90
25248;DHT22;13191;47.472;11.214;2022-12-18T07:36:48;-8.60;99.90
25248;DHT22;13191;47.472;11.214;2022-12-18T07:39:14;-8.60;99.90
25248;DHT22;13191;47.472;11.214;2022-12-18T07:41:40;-8.60;99.90
25248;DHT22;13191;47.472;11.214;2022-12-18T07:44:11;-8.60;99.90
25248;DHT22;13191;47.472;11.214;2022-12-18T07:46:37;-8.50;99.90
25248;DHT22;13191;47.472;11.214;2022-12-18T07:49:03;-8.40;99.90
25248;DHT22;13191;47.472;11.214;2022-12-18T07:51:29;-8.60;99.90
25248;DHT22;13191;47.472;11.214;2022-12-18T07:53:55;-8.50;99.90
25248;DHT22;13191;47.472;11.214;2022-12-18T07:56:21;-8.50;99.90
25248;DHT22;13191;47.472;11.214;2022-12-18T07:58:47;-8.40;99.90
25248;DHT22;13191;47.472;11.214;2022-12-18T08:01:13;-8.40;99.90
25248;DHT22;13191;47.472;11.214;2022-12-18T08:03:39;-8.30;99.90
25248;DHT22;13191;47.472;11.214;2022-12-18T08:06:08;-8.30;99.90
25248;DHT22;13191;47.472;11.214;2022-12-18T08:08:35;-8.30;99.90
25248;DHT22;13191;47.472;11.214;2022-12-18T08:11:01;-8.30;99.90
25248;DHT22;13191;47.472;11.214;2022-12-18T08:13:27;-8.30;99.90
25248;DHT22;13191;47.472;11.214;2022-12-18T08:15:57;-8.30;99.90
25248;DHT22;13191;47.472;11.214;2022-12-18T08:18:23;-8.20;99.90
25248;DHT22;13191;47.472;11.214;2022-12-18T08:20:49;-8.20;99.90
25248;DHT22;13191;47.472;11.214;2022-12-18T08:23:15;-8.10;99.90
25248;DHT22;13191;47.472;11.214;2022-12-18T08:25:40;-8.10;99.90
25248;DHT22;13191;47.472;11.214;2022-12-18T08:28:06;-8.00;99.90
25248;DHT22;13191;47.472;11.214;2022-12-18T08:30:31;-7.90;99.90
25248;DHT22;13191;47.472;11.214;2022-12-18T08:32:57;-7.90;99.90
25248;DHT22;13191;47.472;11.214;2022-12-18T08:35:23;-7.80;99.90
25248;DHT22;13191;47.472;11.214;2022-12-18T08:37:48;-7.70;99.90
25248;DHT22;13191;47.472;11.214;2022-12-18T08:40:15;-7.70;99.90
25248;DHT22;13191;47.472;11.214;2022-12-18T08:42:40;-7.60;99.90
25248;DHT22;13191;47.472;11.214;2022-12-18T08:45:24;-7.60;99.90
25248;DHT22;13191;47.472;11.214;2022-12-18T08:47:50;-7.50;99.90
25248;DHT22;13191;47.472;11.214;2022-12-18T08:50:16;-7.40;99.90
25248;DHT22;13191;47.472;11.214;2022-12-18T08:52:41;-7.40;99.90
25248;DHT22;13191;47.472;11.214;2022-12-18T08:55:08;-7.30;99.90
25248;DHT22;13191;47.472;11.214;2022-12-18T08:57:33;-7.30;99.90
25248;DHT22;13191;47.472;11.214;2022-12-18T08:59:59;-7.20;99.90
25248;DHT22;13191;47.472;11.214;2022-12-18T09:02:25;-7.10;99.90
25248;DHT22;13191;47.472;11.214;2022-12-18T09:04:50;-7.00;99.90
25248;DHT22;13191;47.472;11.214;2022-12-18T09:07:16;-6.90;99.90
25248;DHT22;13191;47.472;11.214;2022-12-18T09:09:41;-6.80;99.90
25248;DHT22;13191;47.472;11.214;2022-12-18T09:12:07;-6.80;99.90
25248;DHT22;13191;47.472;11.214;2022-12-18T09:14:32;-6.70;99.90
25248;DHT22;13191;47.472;11.214;2022-12-18T09:16:58;-6.70;99.90
25248;DHT22;13191;47.472;11.214;2022-12-18T09:19:23;-6.60;99.90
25248;DHT22;13191;47.472;11.214;2022-12-18T09:21:49;-6.40;99.90
25248;DHT22;13191;47.472;11.214;2022-12-18T09:24:15;-6.30;99.90
25248;DHT22;13191;47.472;11.214;2022-12-18T09:26:41;-6.30;99.90
25248;DHT22;13191;47.472;11.214;2022-12-18T09:29:07;-6.20;99.90
25248;DHT22;13191;47.472;11.214;2022-12-18T09:31:33;-6.10;99.90
25248;DHT22;13191;47.472;11.214;2022-12-18T09:33:58;-5.90;99.90
25248;DHT22;13191;47.472;11.214;2022-12-18T09:36:24;-5.80;99.90
25248;DHT22;13191;47.472;11.214;2022-12-18T09:38:50;-5.70;99.90
25248;DHT22;13191;47.472;11.214;2022-12-18T09:41:51;-5.60;99.90
25248;DHT22;13191;47.472;11.214;2022-12-18T09:44:23;-5.50;99.90
25248;DHT22;13191;47.472;11.214;2022-12-18T09:47:00;-5.40;99.90
25248;DHT22;13191;47.472;11.214;2022-12-18T09:49:29;-5.30;99.90
25248;DHT22;13191;47.472;11.214;2022-12-18T09:54:39;-5.10;99.90
25248;DHT22;13191;47.472;11.214;2022-12-18T09:57:05;-5.00;99.90
25248;DHT22;13191;47.472;11.214;2022-12-18T09:59:35;-4.90;99.90
25248;DHT22;13191;47.472;11.214;2022-12-18T10:02:20;-4.80;99.90
25248;DHT22;13191;47.472;11.214;2022-12-18T10:05:02;-4.70;99.90
25248;DHT22;13191;47.472;11.214;2022-12-18T10:10:31;-4.50;99.90
25248;DHT22;13191;47.472;11.214;2022-12-18T10:13:27;-4.30;99.90
25248;DHT22;13191;47.472;11.214;2022-12-18T10:26:58;-3.80;99.90
25248;DHT22;13191;47.472;11.214;2022-12-18T10:29:25;-3.70;99.90
25248;DHT22;13191;47.472;11.214;2022-12-18T10:31:51;-3.50;99.90
25248;DHT22;13191;47.472;11.214;2022-12-18T10:34:16;-3.40;99.90
25248;DHT22;13191;47.472;11.214;2022-12-18T10:36:42;-3.30;99.90
25248;DHT22;13191;47.472;11.214;2022-12-18T10:39:21;-3.20;99.90
25248;DHT22;13191;47.472;11.214;2022-12-18T10:41:48;-3.00;99.90
25248;DHT22;13191;47.472;11.214;2022-12-18T10:44:23;-2.90;99.90
25248;DHT22;13191;47.472;11.214;2022-12-18T10:46:54;-2.80;99.90
25248;DHT22;13191;47.472;11.214;2022-12-18T10:49:28;-2.70;99.90
25248;DHT22;13191;47.472;11.214;2022-12-18T10:52:05;-2.60;99.90
25248;DHT22;13191;47.472;11.214;2022-12-18T10:54:33;-2.50;99.90
25248;DHT22;13191;47.472;11.214;2022-12-18T10:57:34;-2.40;99.90
25248;DHT22;13191;47.472;11.214;2022-12-18T11:02:45;-2.20;99.90
25248;DHT22;13191;47.472;11.214;2022-12-18T11:05:40;-2.00;99.90
25248;DHT22;13191;47.472;11.214;2022-12-18T11:08:20;-1.90;99.90
25248;DHT22;13191;47.472;11.214;2022-12-18T11:10:47;-1.80;99.90
25248;DHT22;13191;47.472;11.214;2022-12-18T11:13:21;-1.70;99.90
25248;DHT22;13191;47.472;11.214;2022-12-18T11:15:48;-1.60;99.90
25248;DHT22;13191;47.472;11.214;2022-12-18T11:18:22;-1.50;99.90
25248;DHT22;13191;47.472;11.214;2022-12-18T11:21:09;-1.40;99.90
25248;DHT22;13191;47.472;11.214;2022-12-18T11:23:37;-1.10;99.90
25248;DHT22;13191;47.472;11.214;2022-12-18T11:26:08;-1.10;99.90
25248;DHT22;13191;47.472;11.214;2022-12-18T11:28:41;-1.00;99.90
25248;DHT22;13191;47.472;11.214;2022-12-18T11:34:10;-0.80;99.90
25248;DHT22;13191;47.472;11.214;2022-12-18T11:36:41;-0.60;99.90
25248;DHT22;13191;47.472;11.214;2022-12-18T11:42:12;-0.30;99.90
25248;DHT22;13191;47.472;11.214;2022-12-18T11:50:34;0.10;99.90
25248;DHT22;13191;47.472;11.214;2022-12-18T11:53:04;0.20;99.90
25248;DHT22;13191;47.472;11.214;2022-12-18T11:58:30;0.40;99.90
25248;DHT22;13191;47.472;11.214;2022-12-18T12:04:21;0.50;99.90
25248;DHT22;13191;47.472;11.214;2022-12-18T12:07:18;0.60;99.90
25248;DHT22;13191;47.472;11.214;2022-12-18T12:16:32;1.10;99.90
25248;DHT22;13191;47.472;11.214;2022-12-18T12:22:00;1.40;99.90
25248;DHT22;13191;47.472;11.214;2022-12-18T12:24:36;1.60;99.90
25248;DHT22;13191;47.472;11.214;2022-12-18T12:32:57;2.10;99.90
25248;DHT22;13191;47.472;11.214;2022-12-18T12:38:24;2.30;99.90
25248;DHT22;13191;47.472;11.214;2022-12-18T12:40:56;2.50;99.90
25248;DHT22;13191;47.472;11.214;2022-12-18T12:43:42;2.70;99.90
25248;DHT22;13191;47.472;11.214;2022-12-18T12:46:11;2.90;99.90
25248;DHT22;13191;47.472;11.214;2022-12-18T12:48:48;3.00;99.90
25248;DHT22;13191;47.472;11.214;2022-12-18T12:51:21;3.20;99.90
25248;DHT22;13191;47.472;11.214;2022-12-18T12:53:48;3.40;99.90
25248;DHT22;13191;47.472;11.214;2022-12-18T12:56:16;3.60;99.90
25248;DHT22;13191;47.472;11.214;2022-12-18T12:58:59;3.90;99.90
25248;DHT22;13191;47.472;11.214;2022-12-18T13:04:27;4.50;99.90
25248;DHT22;13191;47.472;11.214;2022-12-18T13:07:00;4.60;99.90
25248;DHT22;13191;47.472;11.214;2022-12-18T13:09:31;4.80;99.90
25248;DHT22;13191;47.472;11.214;2022-12-18T13:12:04;4.80;99.90
25248;DHT22;13191;47.472;11.214;2022-12-18T13:15:12;4.60;99.90
25248;DHT22;13191;47.472;11.214;2022-12-18T13:17:38;4.80;99.90
25248;DHT22;13191;47.472;11.214;2022-12-18T13:20:12;4.90;99.90
25248;DHT22;13191;47.472;11.214;2022-12-18T13:22:47;5.00;99.90
25248;DHT22;13191;47.472;11.214;2022-12-18T13:28:04;5.10;99.90
25248;DHT22;13191;47.472;11.214;2022-12-18T13:35:42;5.00;99.90
25248;DHT22;13191;47.472;11.214;2022-12-18T13:43:46;4.80;99.90
25248;DHT22;13191;47.472;11.214;2022-12-18T13:46:42;4.70;99.90
25248;DHT22;13191;47.472;11.214;2022-12-18T13:49:25;4.60;99.90
25248;DHT22;13191;47.472;11.214;2022-12-18T13:51:55;4.50;99.90
25248;DHT22;13191;47.472;11.214;2022-12-18T13:54:32;4.40;99.90
25248;DHT22;13191;47.472;11.214;2022-12-18T13:56:58;4.00;99.90
25248;DHT22;13191;47.472;11.214;2022-12-18T13:59:25;3.90;99.90
25248;DHT22;13191;47.472;11.214;2022-12-18T14:01:57;3.80;99.90
25248;DHT22;13191;47.472;11.214;2022-12-18T14:04:32;3.70;99.90
25248;DHT22;13191;47.472;11.214;2022-12-18T14:07:15;3.50;99.90
25248;DHT22;13191;47.472;11.214;2022-12-18T14:10:02;3.40;99.90
25248;DHT22;13191;47.472;11.214;2022-12-18T14:12:33;3.30;99.90
25248;DHT22;13191;47.472;11.214;2022-12-18T14:15:57;3.20;99.90
25248;DHT22;13191;47.472;11.214;2022-12-18T14:21:30;2.90;99.90
25248;DHT22;13191;47.472;11.214;2022-12-18T14:24:17;2.90;99.90
25248;DHT22;13191;47.472;11.214;2022-12-18T14:26:44;2.80;99.90
25248;DHT22;13191;47.472;11.214;2022-12-18T14:29:27;2.70;99.90
25248;DHT22;13191;47.472;11.214;2022-12-18T14:32:10;2.50;99.90
25248;DHT22;13191;47.472;11.214;2022-12-18T14:34:36;2.40;99.90
25248;DHT22;13191;47.472;11.214;2022-12-18T14:37:02;2.30;99.90
25248;DHT22;13191;47.472;11.214;2022-12-18T14:39:28;2.20;99.90
25248;DHT22;13191;47.472;11.214;2022-12-18T14:41:54;2.00;99.90
25248;DHT22;13191;47.472;11.214;2022-12-18T14:44:20;1.90;99.90
25248;DHT22;13191;47.472;11.214;2022-12-18T14:46:47;1.80;99.90
25248;DHT22;13191;47.472;11.214;2022-12-18T14:49:31;1.70;99.90
25248;DHT22;13191;47.472;11.214;2022-12-18T14:51:59;1.60;99.90
25248;DHT22;13191;47.472;11.214;2022-12-18T14:54:26;1.50;99.90
25248;DHT22;13191;47.472;11.214;2022-12-18T14:57:22;1.40;99.90
25248;DHT22;13191;47.472;11.214;2022-12-18T14:59:49;1.30;99.90
25248;DHT22;13191;47.472;11.214;2022-12-18T15:02:26;1.20;99.90
25248;DHT22;13191;47.472;11.214;2022-12-18T15:10:11;0.80;99.90
25248;DHT22;13191;47.472;11.214;2022-12-18T15:12:40;0.80;99.90
25248;DHT22;13191;47.472;11.214;2022-12-18T15:20:56;0.60;99.90
25248;DHT22;13191;47.472;11.214;2022-12-18T15:26:01;0.40;99.90
25248;DHT22;13191;47.472;11.214;2022-12-18T15:28:30;0.30;99.90
25248;DHT22;13191;47.472;11.214;2022-12-18T15:31:02;0.30;99.90
25248;DHT22;13191;47.472;11.214;2022-12-18T15:34:11;0.10;99.90
25248;DHT22;13191;47.472;11.214;2022-12-18T15:36:18;0.10;99.90
25248;DHT22;13191;47.472;11.214;2022-12-18T15:38:50;0.00;99.90
25248;DHT22;13191;47.472;11.214;2022-12-18T15:41:18;-0.10;99.90
25248;DHT22;13191;47.472;11.214;2022-12-18T15:43:45;-0.10;99.90
25248;DHT22;13191;47.472;11.214;2022-12-18T15:46:13;-0.10;99.90
25248;DHT22;13191;47.472;11.214;2022-12-18T15:48:44;-0.20;99.90
25248;DHT22;13191;47.472;11.214;2022-12-18T15:51:22;-0.30;99.90
25248;DHT22;13191;47.472;11.214;2022-12-18T15:53:51;-0.30;99.90
25248;DHT22;13191;47.472;11.214;2022-12-18T15:56:17;-0.30;99.90
25248;DHT22;13191;47.472;11.214;2022-12-18T15:59:02;-0.50;99.90
25248;DHT22;13191;47.472;11.214;2022-12-18T16:01:29;-0.60;99.90
25248;DHT22;13191;47.472;11.214;2022-12-18T16:03:55;-0.60;99.90
25248;DHT22;13191;47.472;11.214;2022-12-18T16:06:22;-0.70;99.90
25248;DHT22;13191;47.472;11.214;2022-12-18T16:08:48;-0.70;99.90
25248;DHT22;13191;47.472;11.214;2022-12-18T16:11:27;-0.80;99.90
25248;DHT22;13191;47.472;11.214;2022-12-18T16:14:19;-0.90;99.90
25248;DHT22;13191;47.472;11.214;2022-12-18T16:16:46;-1.00;99.90
25248;DHT22;13191;47.472;11.214;2022-12-18T16:19:12;-1.10;99.90
25248;DHT22;13191;47.472;11.214;2022-12-18T16:21:38;-1.20;99.90
25248;DHT22;13191;47.472;11.214;2022-12-18T16:24:03;-1.20;99.90
25248;DHT22;13191;47.472;11.214;2022-12-18T16:26:29;-1.30;99.90
25248;DHT22;13191;47.472;11.214;2022-12-18T16:28:54;-1.40;99.90
25248;DHT22;13191;47.472;11.214;2022-12-18T16:31:20;-1.60;99.90
25248;DHT22;13191;47.472;11.214;2022-12-18T16:33:46;-1.70;99.90
25248;DHT22;13191;47.472;11.214;2022-12-18T16:36:11;-1.70;99.90
25248;DHT22;13191;47.472;11.214;2022-12-18T16:38:37;-1.60;99.90
25248;DHT22;13191;47.472;11.214;2022-12-18T16:41:17;-1.60;99.90
25248;DHT22;13191;47.472;11.214;2022-12-18T16:43:59;-1.60;99.90
25248;DHT22;13191;47.472;11.214;2022-12-18T16:46:25;-1.60;99.90
25248;DHT22;13191;47.472;11.214;2022-12-18T16:48:50;-1.60;99.90
25248;DHT22;13191;47.472;11.214;2022-12-18T16:51:16;-1.70;99.90
25248;DHT22;13191;47.472;11.214;2022-12-18T16:53:42;-1.80;99.90
25248;DHT22;13191;47.472;11.214;2022-12-18T16:56:07;-1.80;99.90
25248;DHT22;13191;47.472;11.214;2022-12-18T16:58:33;-1.80;99.90
25248;DHT22;13191;47.472;11.214;2022-12-18T17:00:59;-1.90;99.90
25248;DHT22;13191;47.472;11.214;2022-12-18T17:49:44;-3.10;99.90
25248;DHT22;13191;47.472;11.214;2022-12-18T17:52:10;-3.00;99.90
25248;DHT22;13191;47.472;11.214;2022-12-18T18:04:22;-3.00;99.90
25248;DHT22;13191;47.472;11.214;2022-12-18T18:24:14;-3.00;99.90
25248;DHT22;13191;47.472;11.214;2022-12-18T18:26:41;-3.00;99.90
25248;DHT22;13191;47.472;11.214;2022-12-18T18:29:07;-3.10;99.90
25248;DHT22;13191;47.472;11.214;2022-12-18T18:31:34;-3.20;99.90
25248;DHT22;13191;47.472;11.214;2022-12-18T18:34:01;-3.20;99.90
25248;DHT22;13191;47.472;11.214;2022-12-18T18:36:27;-3.20;99.90
25248;DHT22;13191;47.472;11.214;2022-12-18T18:38:53;-3.30;99.90
25248;DHT22;13191;47.472;11.214;2022-12-18T18:41:19;-3.30;99.90
25248;DHT22;13191;47.472;11.214;2022-12-18T18:43:46;-3.30;99.90
25248;DHT22;13191;47.472;11.214;2022-12-18T19:13:12;-3.70;99.90